Imperial, California
Current Conditions -  °F | °C
As of 9:53 PM on Wednesday 22 Oct 2014 (Local Time) from KIPL Reporting Station
Clear Clear  
Wind Chill: 77°   Ceiling: Unl
Heat Index: 78°   Visibility: 10mi
Dew Point: 52°   Wind: 3mph
Humidity: 42%   Direction: 10°N
Pressure: 29.89"   Gusts: NA
Location:  32.85°N, 115.57°W
Report Text: KIPL 230453Z AUTO 01003KT 10SM CLR 25/11 A2989 RMK AO2 SLP121 T02500111
Loading
Personal Weather Stations






























Interactive Weather Map New forecast layout! Learn more

10-Day Weather Forecast

Advertisements
Track Severe Weather on mobile